Time;durP1;ratioP1;P1;durP2;ratioP2;P2;SDS_P1;SDS_P2;PMS_P1;PMS_P2;Temp;Humidity;BMP_temperature;BMP_pressure;BME280_temperature;BME280_humidity;BME280_pressure;Samples;Min_cycle;Max_cycle;Signal;HPM_P1;HPM_P2
2022/01/01 00:00:31;;;;;;;11.17;8.13;;;12.20;99.90;;;;;;10393791;28;20238;-75
2022/01/01 00:05:31;;;;;;;14.20;9.47;;;12.20;99.90;;;;;;10390437;28;20699;-74
2022/01/01 00:10:32;;;;;;;19.13;12.80;;;12.20;99.90;;;;;;10399046;28;20246;-75
2022/01/01 00:15:33;;;;;;;51.03;20.37;;;12.20;99.90;;;;;;10392148;28;20223;-74
2022/01/01 00:20:34;;;;;;;11.83;7.07;;;12.10;99.90;;;;;;10395812;28;20330;-76
2022/01/01 00:25:34;;;;;;;10.63;7.13;;;12.10;99.90;;;;;;10385902;28;20721;-75
2022/01/01 00:30:35;;;;;;;9.40;7.07;;;12.10;99.90;;;;;;10387032;28;20215;-75
2022/01/01 00:35:36;;;;;;;9.27;6.47;;;12.10;99.90;;;;;;10387540;28;20315;-74
2022/01/01 00:40:36;;;;;;;9.13;7.10;;;12.10;99.90;;;;;;10385710;28;20701;-76
2022/01/01 00:45:40;;;;;;;9.77;7.30;;;12.10;99.90;;;;;;10400590;28;20230;-76
2022/01/01 00:50:41;;;;;;;8.30;6.90;;;12.10;99.90;;;;;;10391399;28;20219;-75
2022/01/01 00:55:41;;;;;;;9.13;7.20;;;12.10;99.90;;;;;;10393224;28;20220;-74
2022/01/01 01:00:42;;;;;;;11.03;7.27;;;12.10;99.90;;;;;;10396811;28;20303;-74
2022/01/01 01:05:45;;;;;;;10.30;8.57;;;12.10;99.90;;;;;;10394153;28;20238;-75
2022/01/01 01:10:47;;;;;;;9.17;8.23;;;12.00;99.90;;;;;;10400726;28;20699;-75
2022/01/01 01:15:48;;;;;;;13.33;8.87;;;12.10;99.90;;;;;;10396066;28;20266;-74
2022/01/01 01:20:49;;;;;;;13.10;8.40;;;12.00;99.90;;;;;;10386989;28;20700;-75
2022/01/01 01:25:49;;;;;;;11.87;8.53;;;12.00;99.90;;;;;;10395677;28;20319;-73
2022/01/01 01:30:50;;;;;;;10.07;8.63;;;11.90;99.90;;;;;;10384072;28;20213;-74
2022/01/01 01:35:50;;;;;;;10.87;8.57;;;11.90;99.90;;;;;;10397709;28;20234;-74
2022/01/01 01:40:51;;;;;;;10.97;8.93;;;11.90;99.90;;;;;;10383064;28;20215;-73
2022/01/01 01:45:52;;;;;;;12.57;8.73;;;11.90;99.90;;;;;;10406364;28;20207;-74
2022/01/01 01:50:52;;;;;;;11.43;9.20;;;11.90;99.90;;;;;;10390609;28;20208;-74
2022/01/01 01:55:58;;;;;;;13.07;9.97;;;11.90;99.90;;;;;;10392238;28;20324;-73
2022/01/01 02:06:18;;;;;;;13.53;10.20;;;11.90;99.90;;;;;;10389778;28;20745;-73
2022/01/01 02:11:21;;;;;;;11.77;10.30;;;11.90;99.90;;;;;;10377909;28;20767;-73
2022/01/01 02:21:23;;;;;;;14.47;10.47;;;11.90;99.90;;;;;;10396062;28;20801;-73
2022/01/01 02:26:34;;;;;;;13.63;11.13;;;11.80;99.90;;;;;;10376851;28;20779;-74
2022/01/01 02:31:40;;;;;;;12.10;10.40;;;11.80;99.90;;;;;;10382280;28;20597;-73
2022/01/01 02:36:43;;;;;;;14.57;10.60;;;11.80;99.90;;;;;;10390106;28;20253;-73
2022/01/01 02:41:45;;;;;;;11.97;9.90;;;11.80;99.90;;;;;;10385096;28;20638;-72
2022/01/01 02:46:45;;;;;;;12.90;10.20;;;11.80;99.90;;;;;;10381377;28;20234;-73
2022/01/01 02:51:46;;;;;;;13.73;10.27;;;11.80;99.90;;;;;;10382437;28;20222;-73
2022/01/01 02:56:48;;;;;;;13.63;9.83;;;11.80;99.90;;;;;;10385933;28;20250;-72
2022/01/01 03:01:49;;;;;;;12.83;10.07;;;11.80;99.90;;;;;;10389007;28;20229;-74
2022/01/01 03:06:55;;;;;;;12.10;10.00;;;11.80;99.90;;;;;;10396167;28;20231;-73
2022/01/01 03:11:55;;;;;;;13.53;9.83;;;11.80;99.90;;;;;;10395336;28;20293;-72
2022/01/01 03:16:56;;;;;;;14.63;10.60;;;11.80;99.90;;;;;;10398514;28;20710;-72
2022/01/01 03:21:56;;;;;;;14.23;9.73;;;11.70;99.90;;;;;;10389450;28;20247;-73
2022/01/01 03:26:57;;;;;;;12.83;10.33;;;11.70;99.90;;;;;;10395198;28;20226;-74
2022/01/01 03:31:58;;;;;;;10.97;9.10;;;11.60;99.90;;;;;;10400120;28;20242;-73
2022/01/01 03:36:58;;;;;;;12.07;9.43;;;11.60;99.90;;;;;;10388826;28;20255;-73
2022/01/01 03:41:59;;;;;;;11.13;9.67;;;11.60;99.90;;;;;;10384732;28;20211;-73
2022/01/01 03:47:11;;;;;;;10.43;9.20;;;11.60;99.90;;;;;;10385820;28;20229;-73
2022/01/01 03:52:12;;;;;;;10.27;8.53;;;11.50;99.90;;;;;;10392092;28;20591;-73
2022/01/01 03:57:12;;;;;;;11.07;8.60;;;11.50;99.90;;;;;;10407757;28;20229;-73
2022/01/01 04:02:14;;;;;;;11.00;9.43;;;11.50;99.90;;;;;;10398434;28;20220;-73
2022/01/01 04:07:16;;;;;;;11.60;9.30;;;11.60;99.90;;;;;;10411250;28;20241;-73
2022/01/01 04:12:16;;;;;;;14.37;8.87;;;11.60;99.90;;;;;;10386647;28;20228;-74
2022/01/01 04:17:17;;;;;;;10.73;8.70;;;11.70;99.90;;;;;;10391180;28;20256;-73
2022/01/01 04:22:17;;;;;;;12.70;9.27;;;11.70;99.90;;;;;;10388291;28;20686;-73
2022/01/01 04:27:18;;;;;;;12.03;8.83;;;11.70;99.90;;;;;;10392341;28;20208;-74
2022/01/01 04:32:19;;;;;;;14.47;8.87;;;11.70;99.90;;;;;;10385047;28;20227;-73
2022/01/01 04:37:20;;;;;;;10.73;9.00;;;11.60;99.90;;;;;;10392565;28;20764;-73
2022/01/01 04:42:24;;;;;;;11.23;8.73;;;11.60;99.90;;;;;;10395233;28;20260;-73
2022/01/01 04:47:27;;;;;;;10.03;8.13;;;11.60;99.90;;;;;;10378876;28;20229;-73
2022/01/01 04:52:29;;;;;;;9.97;8.37;;;11.60;99.90;;;;;;10392117;28;20225;-73
2022/01/01 04:57:30;;;;;;;10.60;8.50;;;11.60;99.90;;;;;;10391106;28;20640;-73
2022/01/01 05:02:30;;;;;;;11.30;8.60;;;11.70;99.90;;;;;;10387393;28;20256;-73
2022/01/01 05:07:31;;;;;;;11.53;8.33;;;11.60;99.90;;;;;;10394515;28;20249;-72
2022/01/01 05:12:32;;;;;;;10.40;8.23;;;11.60;99.90;;;;;;10397033;28;20320;-73
2022/01/01 05:17:32;;;;;;;11.33;8.37;;;11.60;99.90;;;;;;10399458;28;20223;-73
2022/01/01 05:22:36;;;;;;;10.67;8.20;;;11.60;99.90;;;;;;10393612;28;20221;-73
2022/01/01 05:27:37;;;;;;;10.83;8.97;;;11.60;99.90;;;;;;10385227;28;20229;-73
2022/01/01 05:32:37;;;;;;;10.57;9.03;;;11.60;99.90;;;;;;10383685;28;20225;-72
2022/01/01 05:37:38;;;;;;;12.83;8.70;;;11.60;99.90;;;;;;10381135;28;20225;-74
2022/01/01 05:42:38;;;;;;;12.07;8.97;;;11.60;99.90;;;;;;10394186;28;20209;-73
2022/01/01 05:47:39;;;;;;;10.83;8.07;;;11.60;99.90;;;;;;10388238;28;20724;-73
2022/01/01 05:52:40;;;;;;;11.40;8.57;;;11.60;99.90;;;;;;10389331;28;20307;-73
2022/01/01 05:57:40;;;;;;;10.30;8.20;;;11.60;99.90;;;;;;10379930;28;20241;-74
2022/01/01 06:02:42;;;;;;;11.50;8.70;;;11.60;99.90;;;;;;10389953;28;20321;-74
2022/01/01 06:07:42;;;;;;;11.17;8.33;;;11.60;99.90;;;;;;10380799;28;20222;-73
2022/01/01 06:12:43;;;;;;;11.30;8.70;;;11.50;99.90;;;;;;10394318;28;20221;-73
2022/01/01 06:17:44;;;;;;;9.93;8.10;;;11.50;99.90;;;;;;10387989;28;20224;-73
2022/01/01 06:22:44;;;;;;;10.07;7.73;;;11.50;99.90;;;;;;10382249;28;20673;-73
2022/01/01 06:27:45;;;;;;;12.30;8.90;;;11.40;99.90;;;;;;10394910;28;20236;-73
2022/01/01 06:32:49;;;;;;;13.77;9.03;;;11.40;99.90;;;;;;10390200;28;20232;-73
2022/01/01 06:37:49;;;;;;;12.90;9.07;;;11.40;99.90;;;;;;10381697;28;20230;-73
2022/01/01 06:42:50;;;;;;;10.73;8.47;;;11.30;99.90;;;;;;10390099;28;20280;-74
2022/01/01 06:47:50;;;;;;;12.73;8.57;;;11.30;99.90;;;;;;10401765;28;20727;-73
2022/01/01 06:52:51;;;;;;;14.23;9.47;;;11.10;99.90;;;;;;10391516;28;20222;-73
2022/01/01 06:57:52;;;;;;;12.40;8.73;;;11.10;99.90;;;;;;10387250;28;20230;-74
2022/01/01 07:02:52;;;;;;;12.57;9.10;;;10.80;99.90;;;;;;10395565;28;20312;-73
2022/01/01 07:07:53;;;;;;;11.37;8.77;;;10.70;99.90;;;;;;10410675;28;20304;-73
2022/01/01 07:12:53;;;;;;;13.07;9.40;;;10.50;99.90;;;;;;10388517;28;20716;-73
2022/01/01 07:17:54;;;;;;;12.10;9.33;;;10.50;99.90;;;;;;10393701;28;20713;-73
2022/01/01 07:22:54;;;;;;;11.83;9.53;;;10.50;99.90;;;;;;10391827;28;20309;-73
2022/01/01 07:27:55;;;;;;;11.87;8.97;;;10.60;99.90;;;;;;10401258;28;20234;-74
2022/01/01 07:32:56;;;;;;;10.70;8.00;;;10.80;99.90;;;;;;10399621;28;20383;-74
2022/01/01 07:37:57;;;;;;;10.53;7.83;;;10.90;99.90;;;;;;10405048;28;20247;-74
2022/01/01 07:42:57;;;;;;;11.67;8.47;;;11.00;99.90;;;;;;10386626;28;20231;-73
2022/01/01 07:47:58;;;;;;;8.67;7.27;;;11.10;99.90;;;;;;10392287;28;20219;-74
2022/01/01 07:52:59;;;;;;;12.57;8.10;;;11.10;99.90;;;;;;10394045;28;20292;-74
2022/01/01 07:57:59;;;;;;;10.10;8.10;;;11.10;99.90;;;;;;10392549;28;20233;-74
2022/01/01 08:03:00;;;;;;;10.37;8.13;;;11.20;99.90;;;;;;10407203;28;20242;-73
2022/01/01 08:08:00;;;;;;;11.43;8.30;;;11.20;99.90;;;;;;10393282;28;20229;-73
2022/01/01 08:13:01;;;;;;;10.70;8.67;;;11.30;99.90;;;;;;10386778;28;20209;-74
2022/01/01 08:18:02;;;;;;;10.70;8.43;;;11.30;99.90;;;;;;10401212;28;20818;-74
2022/01/01 08:23:06;;;;;;;9.97;8.37;;;11.30;99.90;;;;;;10394508;28;20298;-75
2022/01/01 08:28:09;;;;;;;10.10;8.23;;;11.40;99.90;;;;;;10390998;28;20299;-75
2022/01/01 08:33:10;;;;;;;10.47;8.67;;;11.50;99.90;;;;;;10392162;28;20374;-75
2022/01/01 08:38:11;;;;;;;10.50;8.53;;;11.60;99.90;;;;;;10396635;28;20320;-74
2022/01/01 08:43:12;;;;;;;10.43;8.17;;;11.70;99.90;;;;;;10385765;28;20232;-74
2022/01/01 08:48:12;;;;;;;11.40;8.10;;;11.90;99.90;;;;;;10384014;28;20692;-74
2022/01/01 08:53:13;;;;;;;10.37;8.50;;;11.90;99.90;;;;;;10391707;28;20652;-74
2022/01/01 08:58:14;;;;;;;11.13;7.97;;;12.00;99.90;;;;;;10394811;28;20236;-73
2022/01/01 09:03:14;;;;;;;13.37;8.47;;;12.10;99.90;;;;;;10397773;28;20252;-73
2022/01/01 09:08:15;;;;;;;11.40;8.93;;;12.10;99.90;;;;;;10387050;28;20220;-73
2022/01/01 09:13:15;;;;;;;10.50;8.47;;;12.10;99.90;;;;;;10391281;28;20312;-73
2022/01/01 09:18:22;;;;;;;11.80;8.53;;;12.20;99.90;;;;;;10415299;28;20270;-74
2022/01/01 09:23:28;;;;;;;12.00;8.63;;;12.20;99.90;;;;;;10404389;28;20611;-73
2022/01/01 09:28:33;;;;;;;10.50;8.87;;;12.30;99.90;;;;;;10389303;28;20217;-73
2022/01/01 09:33:34;;;;;;;10.97;8.13;;;12.30;99.90;;;;;;10393301;28;20222;-74
2022/01/01 09:38:35;;;;;;;15.63;9.23;;;12.30;99.90;;;;;;10390066;28;20232;-73
2022/01/01 09:43:36;;;;;;;13.47;9.60;;;12.40;99.90;;;;;;10386498;28;20287;-73
2022/01/01 09:48:37;;;;;;;13.20;9.97;;;12.40;99.90;;;;;;10385383;28;20229;-73
2022/01/01 09:53:37;;;;;;;12.07;9.40;;;12.40;99.90;;;;;;10382951;28;20223;-74
2022/01/01 09:58:38;;;;;;;12.73;9.50;;;12.40;99.90;;;;;;10394632;28;20229;-73
2022/01/01 10:03:49;;;;;;;13.07;9.97;;;12.60;99.90;;;;;;10384599;28;20222;-74
2022/01/01 10:09:03;;;;;;;12.53;9.47;;;12.60;99.90;;;;;;10388586;28;20213;-73
2022/01/01 10:14:06;;;;;;;11.50;9.27;;;12.60;99.90;;;;;;10388061;28;20233;-72
2022/01/01 10:19:06;;;;;;;12.53;9.37;;;12.70;99.90;;;;;;10391869;28;20226;-73
2022/01/01 10:24:13;;;;;;;13.80;9.70;;;12.70;99.90;;;;;;10400881;28;20224;-73
2022/01/01 10:29:28;;;;;;;13.83;9.77;;;12.80;99.90;;;;;;10387884;28;20318;-74
2022/01/01 10:34:45;;;;;;;12.90;9.77;;;12.90;99.90;;;;;;10386628;28;20223;-74
2022/01/01 10:39:51;;;;;;;13.23;9.80;;;13.00;99.90;;;;;;10404582;28;20238;-74
2022/01/01 10:44:53;;;;;;;12.27;9.90;;;13.00;99.90;;;;;;10390669;28;20313;-75
2022/01/01 10:55:14;;;;;;;13.63;9.60;;;13.00;99.90;;;;;;10437755;28;20563;-73
2022/01/01 11:00:15;;;;;;;12.47;9.17;;;13.00;99.90;;;;;;10397291;28;20215;-74
2022/01/01 11:05:25;;;;;;;11.77;8.77;;;13.10;99.90;;;;;;10395650;28;20875;-74
2022/01/01 11:10:26;;;;;;;10.70;8.50;;;13.10;99.90;;;;;;10392250;28;20218;-74
2022/01/01 11:15:28;;;;;;;11.90;8.97;;;13.10;99.90;;;;;;10388236;28;20232;-72
2022/01/01 11:20:34;;;;;;;10.90;8.57;;;13.20;99.90;;;;;;10378942;28;20635;-74
2022/01/01 11:25:35;;;;;;;9.57;8.23;;;13.20;99.90;;;;;;10399791;28;20302;-74
2022/01/01 11:30:42;;;;;;;13.90;8.80;;;13.20;99.90;;;;;;10387767;28;20785;-73
2022/01/01 11:35:57;;;;;;;11.77;8.20;;;13.30;99.90;;;;;;10393322;28;20232;-75
2022/01/01 11:41:02;;;;;;;10.83;8.20;;;13.30;99.90;;;;;;10389556;28;20238;-75
2022/01/01 11:46:17;;;;;;;11.83;8.30;;;13.20;99.90;;;;;;10390562;28;20225;-75
2022/01/01 11:51:18;;;;;;;12.30;8.80;;;13.20;99.90;;;;;;10399982;28;20236;-75
2022/01/01 11:56:19;;;;;;;13.20;8.43;;;13.30;99.90;;;;;;10387506;28;20225;-73
2022/01/01 12:01:22;;;;;;;10.00;8.20;;;13.30;99.90;;;;;;10390173;28;20298;-73
2022/01/01 12:06:22;;;;;;;9.57;8.10;;;13.40;99.90;;;;;;10392248;28;20759;-73
2022/01/01 12:11:28;;;;;;;13.03;8.40;;;13.40;99.90;;;;;;10388085;28;20219;-74
2022/01/01 12:16:29;;;;;;;9.87;8.20;;;13.40;99.90;;;;;;10397739;28;20706;-73
2022/01/01 12:21:41;;;;;;;10.40;7.77;;;13.60;99.90;;;;;;10389312;28;20212;-74
2022/01/01 12:26:53;;;;;;;9.13;7.30;;;13.70;99.90;;;;;;10383627;28;20825;-73
2022/01/01 12:31:58;;;;;;;11.20;7.33;;;13.90;99.90;;;;;;10392297;28;20281;-73
2022/01/01 12:37:03;;;;;;;12.80;6.93;;;13.90;99.90;;;;;;10383960;28;20222;-73
2022/01/01 12:42:31;;;;;;;9.27;6.73;;;13.90;99.90;;;;;;10383452;28;20310;-73
2022/01/01 12:47:32;;;;;;;10.03;7.10;;;13.80;99.90;;;;;;10396116;28;20639;-74
2022/01/01 12:52:33;;;;;;;13.27;7.90;;;13.90;99.90;;;;;;10394648;28;20227;-73
2022/01/01 12:57:33;;;;;;;10.70;7.00;;;13.90;99.90;;;;;;10388675;28;20241;-74
2022/01/01 13:02:34;;;;;;;12.43;8.00;;;13.90;99.90;;;;;;10390308;28;20231;-73
2022/01/01 13:07:34;;;;;;;9.93;6.80;;;14.00;99.90;;;;;;10394015;28;20230;-73
2022/01/01 13:12:35;;;;;;;8.80;6.37;;;14.00;99.90;;;;;;10386599;28;20299;-74
2022/01/01 13:17:39;;;;;;;10.73;7.20;;;13.90;99.90;;;;;;10374539;28;20289;-74
2022/01/01 13:22:39;;;;;;;8.63;6.00;;;13.70;99.90;;;;;;10387141;28;20234;-74
2022/01/01 13:27:45;;;;;;;10.73;6.83;;;13.60;99.90;;;;;;10382437;28;20225;-73
2022/01/01 13:32:48;;;;;;;8.50;6.50;;;13.50;99.90;;;;;;10384665;28;20233;-74
2022/01/01 13:37:49;;;;;;;9.60;7.60;;;13.40;99.90;;;;;;10391058;28;20249;-73
2022/01/01 13:42:50;;;;;;;12.77;8.03;;;13.30;99.90;;;;;;10383500;28;20231;-74
2022/01/01 13:48:10;;;;;;;11.87;8.00;;;13.30;99.90;;;;;;10389249;28;20318;-73
2022/01/01 13:53:12;;;;;;;12.23;8.43;;;13.20;99.90;;;;;;10391716;28;20245;-74
2022/01/01 13:58:16;;;;;;;11.47;7.93;;;13.10;99.90;;;;;;10389285;28;20231;-72
2022/01/01 14:03:17;;;;;;;11.37;8.30;;;13.10;99.90;;;;;;10394943;28;20689;-73
2022/01/01 14:08:18;;;;;;;11.23;8.67;;;13.00;99.90;;;;;;10375307;28;20221;-74
2022/01/01 14:13:28;;;;;;;11.90;8.80;;;13.00;99.90;;;;;;10389451;28;20320;-74
2022/01/01 14:18:31;;;;;;;13.03;8.70;;;12.90;99.90;;;;;;10394815;28;20225;-74
2022/01/01 14:23:33;;;;;;;10.87;8.27;;;12.80;99.90;;;;;;10387108;28;20589;-74
2022/01/01 14:28:35;;;;;;;11.57;8.47;;;12.70;99.90;;;;;;10380872;28;20280;-74
2022/01/01 14:33:36;;;;;;;12.83;8.70;;;12.60;99.90;;;;;;10385250;28;20724;-74
2022/01/01 14:38:38;;;;;;;12.83;8.87;;;12.50;99.90;;;;;;10380525;28;20233;-75
2022/01/01 14:43:39;;;;;;;12.47;9.10;;;12.40;99.90;;;;;;10396356;28;20351;-74
2022/01/01 14:48:39;;;;;;;10.87;9.20;;;12.20;99.90;;;;;;10389601;28;20316;-74
2022/01/01 14:53:46;;;;;;;11.50;8.43;;;12.10;99.90;;;;;;10382798;28;20221;-74
2022/01/01 14:58:59;;;;;;;11.73;9.00;;;11.90;99.90;;;;;;10386800;28;20732;-74
2022/01/01 15:04:01;;;;;;;11.70;8.90;;;11.70;99.90;;;;;;10389967;28;20319;-74
2022/01/01 15:09:03;;;;;;;10.40;8.53;;;11.60;99.90;;;;;;10379619;28;20230;-74
2022/01/01 15:14:04;;;;;;;11.23;7.93;;;11.40;99.90;;;;;;10394577;28;20376;-74
2022/01/01 15:19:06;;;;;;;13.83;9.07;;;11.20;99.90;;;;;;10401749;28;20225;-74
2022/01/01 15:24:07;;;;;;;15.43;9.43;;;11.10;99.90;;;;;;10370840;28;20224;-74
2022/01/01 15:29:21;;;;;;;12.30;8.73;;;11.00;99.90;;;;;;10427828;28;20244;-74
2022/01/01 15:34:23;;;;;;;10.93;8.67;;;10.90;99.90;;;;;;10431932;28;20330;-74
2022/01/01 15:39:25;;;;;;;11.90;9.03;;;10.80;99.90;;;;;;10396647;28;20275;-74
2022/01/01 15:44:25;;;;;;;13.20;8.63;;;10.60;99.90;;;;;;10395063;28;20236;-73
2022/01/01 15:49:26;;;;;;;11.83;8.80;;;10.50;99.90;;;;;;10385787;28;20235;-73
2022/01/01 15:54:28;;;;;;;13.27;10.27;;;10.50;99.90;;;;;;10387535;28;20578;-74
2022/01/01 15:59:32;;;;;;;13.70;10.30;;;10.40;99.90;;;;;;10390785;28;20227;-73
2022/01/01 16:04:50;;;;;;;14.27;9.63;;;10.30;99.90;;;;;;10385852;28;20304;-74
2022/01/01 16:09:56;;;;;;;16.37;10.67;;;10.30;99.90;;;;;;10392520;28;20225;-74
2022/01/01 16:15:06;;;;;;;16.17;12.33;;;10.10;99.90;;;;;;10390233;28;20281;-74
2022/01/01 16:20:08;;;;;;;12.97;10.30;;;10.10;99.90;;;;;;10393439;28;20231;-73
2022/01/01 16:25:09;;;;;;;14.30;10.50;;;10.10;99.90;;;;;;10395482;28;20186;-74
2022/01/01 16:30:10;;;;;;;16.33;11.77;;;10.00;99.90;;;;;;10424204;28;20204;-75
2022/01/01 16:35:11;;;;;;;13.07;9.90;;;10.00;99.90;;;;;;10403994;28;20194;-75
2022/01/01 16:40:12;;;;;;;14.67;11.50;;;10.00;99.90;;;;;;10397556;28;20764;-75
2022/01/01 16:45:14;;;;;;;15.17;11.53;;;9.90;99.90;;;;;;10397264;28;20183;-74
2022/01/01 16:50:17;;;;;;;13.63;11.43;;;9.80;99.90;;;;;;10390919;28;20197;-74
2022/01/01 16:55:30;;;;;;;15.57;11.33;;;9.70;99.90;;;;;;10392849;28;20649;-74
2022/01/01 17:00:33;;;;;;;15.10;11.00;;;9.60;99.90;;;;;;10393713;28;20778;-74
2022/01/01 17:05:39;;;;;;;17.07;12.30;;;9.60;99.90;;;;;;10402710;28;20250;-75
2022/01/01 17:10:41;;;;;;;14.90;11.03;;;9.50;99.90;;;;;;10387118;28;20217;-74
2022/01/01 17:16:02;;;;;;;16.67;11.53;;;9.40;99.90;;;;;;10379171;28;20239;-75
2022/01/01 17:21:06;;;;;;;13.47;10.43;;;9.40;99.90;;;;;;10388919;28;20222;-74
2022/01/01 17:26:07;;;;;;;15.30;10.90;;;9.40;99.90;;;;;;10396148;28;20280;-74
2022/01/01 17:31:11;;;;;;;13.40;10.40;;;9.40;99.90;;;;;;10383381;28;20241;-73
2022/01/01 17:36:22;;;;;;;14.23;10.27;;;9.30;99.90;;;;;;10399043;28;20324;-74
2022/01/01 17:41:29;;;;;;;13.47;10.20;;;9.30;99.90;;;;;;10385182;28;20736;-76
2022/01/01 17:46:29;;;;;;;14.30;10.73;;;9.40;99.90;;;;;;10391284;28;20617;-74
2022/01/01 17:51:37;;;;;;;14.40;10.33;;;9.40;99.90;;;;;;10388622;28;20305;-74
2022/01/01 17:56:41;;;;;;;15.87;11.23;;;9.40;99.90;;;;;;10385945;28;20230;-73
2022/01/01 18:01:44;;;;;;;18.17;12.23;;;9.40;99.90;;;;;;10390312;28;20652;-74
2022/01/01 18:07:26;;;;;;;17.63;10.80;;;9.50;99.90;;;;;;10386430;28;20256;-74
2022/01/01 18:12:41;;;;;;;16.47;11.00;;;9.50;99.90;;;;;;10381462;28;20259;-74
2022/01/01 18:17:49;;;;;;;14.97;11.57;;;9.50;99.90;;;;;;10384989;28;20226;-74
2022/01/01 18:22:55;;;;;;;17.70;12.00;;;9.40;99.90;;;;;;10396045;28;20236;-73
2022/01/01 18:28:17;;;;;;;16.30;11.63;;;9.40;99.90;;;;;;10396799;28;20352;-74
2022/01/01 18:33:21;;;;;;;16.10;12.60;;;9.30;99.90;;;;;;10388862;28;20221;-74
2022/01/01 18:38:34;;;;;;;18.23;13.07;;;9.40;99.90;;;;;;10391388;28;20243;-74
2022/01/01 18:43:34;;;;;;;26.70;15.70;;;9.40;99.90;;;;;;10396317;28;20218;-74
2022/01/01 18:48:38;;;;;;;19.57;13.47;;;9.50;99.90;;;;;;10402925;28;20213;-74
2022/01/01 18:54:02;;;;;;;23.23;15.90;;;9.50;99.90;;;;;;10396222;28;20219;-74
2022/01/01 18:59:06;;;;;;;21.03;14.27;;;9.50;99.90;;;;;;10387139;28;20261;-73
2022/01/01 19:04:13;;;;;;;19.30;13.80;;;9.40;99.90;;;;;;10389598;28;20891;-75
2022/01/01 19:09:33;;;;;;;19.67;12.77;;;9.30;99.90;;;;;;10381336;28;20731;-74
2022/01/01 19:14:34;;;;;;;15.30;11.87;;;9.30;99.90;;;;;;10401973;28;20695;-73
2022/01/01 19:19:35;;;;;;;23.80;16.63;;;9.20;99.90;;;;;;10395235;28;20233;-74
2022/01/01 19:24:37;;;;;;;16.87;11.20;;;9.20;99.90;;;;;;10392670;28;20220;-74
2022/01/01 19:29:38;;;;;;;16.03;11.17;;;9.20;99.90;;;;;;10391493;28;20217;-74
2022/01/01 19:34:40;;;;;;;16.00;11.50;;;9.10;99.90;;;;;;10400491;28;20313;-74
2022/01/01 19:39:49;;;;;;;17.77;12.57;;;9.10;99.90;;;;;;10399768;28;20309;-75
2022/01/01 19:44:58;;;;;;;14.77;11.30;;;9.10;99.90;;;;;;10395325;28;20240;-75
2022/01/01 19:50:08;;;;;;;22.23;12.50;;;9.00;99.90;;;;;;10425252;28;20217;-75
2022/01/01 19:55:09;;;;;;;16.40;12.27;;;8.80;99.90;;;;;;10390985;28;20312;-74
2022/01/01 20:00:14;;;;;;;18.17;12.87;;;8.70;99.90;;;;;;10387838;28;20300;-74
2022/01/01 20:05:16;;;;;;;21.37;13.80;;;8.70;99.90;;;;;;10381537;28;20254;-73
2022/01/01 20:10:19;;;;;;;14.47;10.97;;;8.70;99.90;;;;;;10393754;28;20187;-74
2022/01/01 20:15:20;;;;;;;15.93;10.93;;;8.70;99.90;;;;;;10391044;28;20506;-74
2022/01/01 20:20:22;;;;;;;18.30;12.27;;;8.70;99.90;;;;;;10384317;28;20197;-73
2022/01/01 20:25:24;;;;;;;17.97;11.53;;;8.60;99.90;;;;;;10397368;28;20193;-74
2022/01/01 20:30:24;;;;;;;17.90;14.13;;;8.70;99.90;;;;;;10384935;28;20570;-75
2022/01/01 20:35:25;;;;;;;24.03;15.30;;;8.60;99.90;;;;;;10397057;28;20217;-74
2022/01/01 20:40:28;;;;;;;24.57;16.00;;;8.60;99.90;;;;;;10390496;28;20229;-74
2022/01/01 20:45:29;;;;;;;21.93;15.90;;;8.60;99.90;;;;;;10385470;28;20360;-76
2022/01/01 20:50:30;;;;;;;24.80;15.87;;;8.50;99.90;;;;;;10428298;28;20221;-75
2022/01/01 20:55:31;;;;;;;22.10;14.47;;;8.50;99.90;;;;;;10397271;28;20225;-74
2022/01/01 21:00:31;;;;;;;18.33;13.73;;;8.50;99.90;;;;;;10384717;28;20233;-74
2022/01/01 21:05:36;;;;;;;20.57;14.57;;;8.40;99.90;;;;;;10394777;28;20240;-74
2022/01/01 21:10:37;;;;;;;20.23;12.53;;;8.30;99.90;;;;;;10394102;28;20241;-75
2022/01/01 21:15:38;;;;;;;18.43;12.73;;;8.40;99.90;;;;;;10392421;28;20225;-74
2022/01/01 21:20:39;;;;;;;22.73;15.33;;;8.30;99.90;;;;;;10389501;28;20325;-73
2022/01/01 21:25:40;;;;;;;22.40;16.43;;;8.20;99.90;;;;;;10382712;28;20231;-74
2022/01/01 21:30:44;;;;;;;24.70;16.53;;;8.20;99.90;;;;;;10380120;28;20231;-74
2022/01/01 21:35:45;;;;;;;22.63;16.03;;;8.10;99.90;;;;;;10393940;28;20590;-74
2022/01/01 21:40:45;;;;;;;21.83;14.40;;;8.10;99.90;;;;;;10390362;28;20238;-76
2022/01/01 21:45:47;;;;;;;20.30;13.50;;;8.00;99.90;;;;;;10388699;28;20592;-74
2022/01/01 21:50:48;;;;;;;21.77;15.47;;;8.10;99.90;;;;;;10382560;28;20256;-73
2022/01/01 21:55:49;;;;;;;29.67;18.83;;;8.10;99.90;;;;;;10383682;28;20220;-74
2022/01/01 22:00:50;;;;;;;25.30;17.93;;;8.20;99.90;;;;;;10387999;28;20889;-74
2022/01/01 22:05:50;;;;;;;23.93;16.60;;;8.30;99.90;;;;;;10381004;28;20721;-74
2022/01/01 22:10:51;;;;;;;23.33;16.20;;;8.30;99.90;;;;;;10380371;28;20855;-73
2022/01/01 22:15:51;;;;;;;23.90;17.00;;;8.30;99.90;;;;;;10391985;28;20227;-75
2022/01/01 22:20:52;;;;;;;18.90;14.17;;;8.30;99.90;;;;;;10398812;28;20598;-74
2022/01/01 22:25:53;;;;;;;20.33;15.00;;;8.30;99.90;;;;;;10396570;28;20239;-75
2022/01/01 22:30:53;;;;;;;18.23;13.90;;;8.20;99.90;;;;;;10403831;28;20224;-74
2022/01/01 22:35:54;;;;;;;21.93;15.13;;;8.20;99.90;;;;;;10390246;28;20229;-75
2022/01/01 22:40:54;;;;;;;25.03;14.97;;;8.10;99.90;;;;;;10395739;28;20270;-73
2022/01/01 22:45:55;;;;;;;21.43;14.37;;;8.00;99.90;;;;;;10384223;28;20934;-73
2022/01/01 22:50:56;;;;;;;16.83;12.47;;;7.90;99.90;;;;;;10393877;28;20218;-73
2022/01/01 22:55:56;;;;;;;17.57;12.40;;;7.90;99.90;;;;;;10393614;28;20220;-73
2022/01/01 23:00:57;;;;;;;18.33;13.27;;;7.90;99.90;;;;;;10397793;28;20228;-75
2022/01/01 23:05:59;;;;;;;15.33;11.67;;;7.80;99.90;;;;;;10390872;28;20228;-74
2022/01/01 23:11:00;;;;;;;19.17;12.27;;;7.80;99.90;;;;;;10392685;28;20785;-74
2022/01/01 23:16:09;;;;;;;20.27;12.93;;;7.80;99.90;;;;;;10386678;28;20217;-74
2022/01/01 23:21:14;;;;;;;18.20;12.93;;;7.70;99.90;;;;;;10392308;28;20225;-76
2022/01/01 23:26:28;;;;;;;15.70;11.37;;;7.70;99.90;;;;;;10396523;28;20702;-77
2022/01/01 23:31:31;;;;;;;18.23;13.60;;;7.70;99.90;;;;;;10397814;28;20238;-76
2022/01/01 23:36:33;;;;;;;18.07;13.77;;;7.70;99.90;;;;;;10405300;28;20245;-75
2022/01/01 23:41:35;;;;;;;18.50;12.67;;;7.70;99.90;;;;;;10404495;28;20219;-75
2022/01/01 23:46:37;;;;;;;16.17;11.63;;;7.80;99.90;;;;;;10403053;28;20272;-75
2022/01/01 23:52:09;;;;;;;18.10;11.90;;;7.80;99.90;;;;;;10384161;28;20221;-73
2022/01/01 23:57:13;;;;;;;15.27;11.70;;;7.90;99.90;;;;;;10381104;28;20233;-74
